Time;durP1;ratioP1;P1;durP2;ratioP2;P2;SDS_P1;SDS_P2;PMS_P1;PMS_P2;Temp;Humidity;BMP_temperature;BMP_pressure;BME280_temperature;BME280_humidity;BME280_pressure;Samples;Min_cycle;Max_cycle;Signal;HPM_P1;HPM_P2
2024/01/16 05:31:31;;;;;;;0.20;0.20;;;1.00;74.90;;;;;;5444389;23;20667;-85
2024/01/16 05:33:57;;;;;;;0.10;0.10;;;1.00;74.90;;;;;;5008148;28;20144;-87
2024/01/16 05:36:24;;;;;;;0.20;0.20;;;1.10;74.70;;;;;;5017211;28;20036;-89
2024/01/16 05:38:50;;;;;;;0.20;0.20;;;1.00;75.00;;;;;;5018405;28;20025;-87
2024/01/16 05:41:16;;;;;;;0.20;0.20;;;1.00;75.30;;;;;;5012700;28;20023;-87
2024/01/16 05:43:41;;;;;;;0.20;0.20;;;1.00;75.70;;;;;;5015946;28;20088;-87
2024/01/16 05:46:10;;;;;;;0.10;0.10;;;1.00;75.50;;;;;;5016340;28;20041;-82
2024/01/16 05:48:36;;;;;;;0.10;0.10;;;1.00;75.40;;;;;;5015211;28;20437;-83
2024/01/16 05:51:01;;;;;;;0.10;0.10;;;1.00;75.20;;;;;;5011080;28;20080;-78
2024/01/16 05:53:27;;;;;;;0.20;0.20;;;1.10;75.10;;;;;;4998684;28;20033;-85
2024/01/16 05:55:54;;;;;;;0.10;0.10;;;1.10;75.40;;;;;;4998532;28;20102;-78
2024/01/16 05:58:20;;;;;;;0.15;0.15;;;1.10;75.70;;;;;;5006918;28;20026;-86
2024/01/16 06:00:45;;;;;;;0.20;0.20;;;1.00;75.60;;;;;;5016946;28;20045;-86
2024/01/16 06:03:11;;;;;;;0.20;0.20;;;1.00;75.70;;;;;;5015093;28;20037;-85
2024/01/16 06:05:36;;;;;;;0.20;0.20;;;1.00;75.40;;;;;;5017599;28;20049;-86
2024/01/16 06:08:02;;;;;;;0.20;0.20;;;1.10;75.20;;;;;;4997958;28;20065;-80
2024/01/16 06:10:28;;;;;;;0.15;0.15;;;1.10;74.90;;;;;;5007095;28;20080;-78
2024/01/16 06:12:54;;;;;;;0.20;0.20;;;1.10;74.80;;;;;;4997658;28;20084;-81
2024/01/16 06:15:19;;;;;;;0.20;0.20;;;1.20;75.50;;;;;;5010147;28;20045;-85
2024/01/16 06:17:45;;;;;;;0.20;0.20;;;1.20;75.00;;;;;;5013838;28;20493;-80
2024/01/16 06:20:11;;;;;;;0.20;0.20;;;1.20;74.80;;;;;;5017367;28;20029;-78
2024/01/16 06:22:36;;;;;;;0.17;0.17;;;1.20;74.90;;;;;;5016752;28;20041;-85
2024/01/16 06:25:02;;;;;;;0.20;0.20;;;1.20;74.90;;;;;;5003603;28;20030;-78
2024/01/16 06:27:28;;;;;;;0.10;0.10;;;1.20;75.00;;;;;;4998669;28;20819;-78
2024/01/16 06:29:53;;;;;;;0.20;0.20;;;1.10;75.00;;;;;;5016048;28;20037;-79
2024/01/16 06:32:19;;;;;;;0.10;0.10;;;1.10;75.60;;;;;;5014180;28;20046;-84
2024/01/16 06:34:44;;;;;;;0.20;0.20;;;1.10;75.20;;;;;;5015256;28;20037;-78
2024/01/16 06:37:10;;;;;;;0.20;0.20;;;1.20;74.80;;;;;;5016052;28;20029;-78
2024/01/16 06:39:37;;;;;;;0.20;0.20;;;1.20;74.80;;;;;;5017180;28;20109;-78
2024/01/16 06:42:04;;;;;;;0.20;0.20;;;1.20;74.70;;;;;;5008574;28;20023;-79
2024/01/16 06:44:30;;;;;;;0.20;0.20;;;1.30;74.70;;;;;;5015265;28;20026;-79
2024/01/16 06:46:55;;;;;;;0.10;0.10;;;1.30;74.70;;;;;;5014624;28;20401;-79
2024/01/16 06:49:21;;;;;;;0.20;0.20;;;1.30;75.40;;;;;;5011486;28;20033;-79
2024/01/16 06:51:47;;;;;;;0.20;0.20;;;1.40;75.00;;;;;;4996905;28;20026;-79
2024/01/16 06:54:12;;;;;;;0.20;0.20;;;1.30;74.80;;;;;;4996270;28;20027;-79
2024/01/16 06:56:38;;;;;;;0.20;0.20;;;1.30;75.00;;;;;;4997330;28;20023;-79
2024/01/16 06:59:03;;;;;;;0.10;0.10;;;1.30;74.80;;;;;;4997006;28;20751;-79
2024/01/16 07:01:30;;;;;;;0.20;0.20;;;1.40;74.40;;;;;;5012822;28;20037;-79
2024/01/16 07:03:56;;;;;;;0.10;0.10;;;1.40;74.10;;;;;;5015247;28;20116;-79
2024/01/16 07:06:21;;;;;;;0.10;0.10;;;1.40;73.80;;;;;;5008863;28;20030;-79
2024/01/16 07:08:47;;;;;;;0.10;0.10;;;1.30;74.00;;;;;;4995035;28;20030;-79
2024/01/16 07:11:13;;;;;;;0.20;0.20;;;1.30;74.10;;;;;;4994229;28;20489;-79
2024/01/16 07:13:43;;;;;;;0.13;0.13;;;1.30;74.20;;;;;;4995808;28;20399;-79
2024/01/16 07:16:12;;;;;;;0.20;0.20;;;1.30;73.50;;;;;;4996049;28;20034;-79
2024/01/16 07:18:39;;;;;;;0.10;0.10;;;1.40;73.70;;;;;;4995859;28;20034;-79
2024/01/16 07:21:15;;;;;;;0.20;0.20;;;1.40;73.90;;;;;;4996929;28;20061;-79
2024/01/16 07:23:40;;;;;;;0.10;0.10;;;1.50;73.70;;;;;;4997082;28;20038;-79
2024/01/16 07:26:07;;;;;;;0.10;0.10;;;1.50;73.70;;;;;;4997112;28;20064;-79
2024/01/16 07:28:32;;;;;;;0.20;0.20;;;1.50;73.90;;;;;;4995340;28;20410;-79
2024/01/16 07:30:58;;;;;;;0.10;0.10;;;1.50;73.90;;;;;;4996830;28;20049;-79
2024/01/16 07:33:24;;;;;;;0.10;0.10;;;1.60;73.20;;;;;;5002745;28;20057;-79
2024/01/16 07:35:49;;;;;;;0.17;0.17;;;1.60;73.60;;;;;;5006440;28;20026;-79
2024/01/16 07:38:15;;;;;;;0.10;0.10;;;1.60;73.40;;;;;;5011938;28;20482;-79
2024/01/16 07:40:40;;;;;;;0.10;0.10;;;1.60;72.70;;;;;;5005112;28;20022;-79
2024/01/16 07:43:06;;;;;;;0.20;0.20;;;1.70;72.40;;;;;;5011913;28;20038;-79
2024/01/16 07:45:32;;;;;;;0.10;0.10;;;1.70;72.00;;;;;;4996949;28;20031;-78
2024/01/16 07:47:58;;;;;;;0.10;0.10;;;1.60;71.90;;;;;;4996589;28;20861;-78
2024/01/16 07:50:23;;;;;;;0.10;0.10;;;1.70;71.60;;;;;;4995382;28;20033;-79
2024/01/16 07:52:50;;;;;;;0.20;0.20;;;1.70;72.20;;;;;;4996658;28;20109;-78
2024/01/16 07:55:15;;;;;;;0.13;0.13;;;1.70;72.30;;;;;;5014042;28;20018;-79
2024/01/16 07:57:41;;;;;;;0.20;0.20;;;1.70;72.60;;;;;;5003083;28;20031;-79
2024/01/16 08:00:11;;;;;;;0.13;0.13;;;1.70;73.20;;;;;;5002798;28;20045;-78
2024/01/16 08:02:37;;;;;;;0.20;0.20;;;1.70;72.60;;;;;;5010867;28;20034;-79
2024/01/16 08:05:04;;;;;;;0.20;0.20;;;1.70;72.90;;;;;;5014965;28;20018;-79
2024/01/16 08:07:29;;;;;;;0.20;0.20;;;1.70;72.70;;;;;;5012757;28;20084;-79
2024/01/16 08:09:56;;;;;;;0.10;0.10;;;1.70;72.70;;;;;;4996365;28;20026;-79
2024/01/16 08:12:21;;;;;;;0.20;0.20;;;1.80;72.30;;;;;;4996346;28;20029;-79
2024/01/16 08:14:47;;;;;;;0.20;0.20;;;1.90;72.10;;;;;;5000335;28;20074;-79
2024/01/16 08:17:12;;;;;;;0.20;0.20;;;2.00;71.80;;;;;;4999987;28;20145;-79
2024/01/16 08:19:38;;;;;;;0.20;0.20;;;2.10;71.60;;;;;;5017026;28;20018;-79
2024/01/16 08:22:04;;;;;;;0.20;0.20;;;2.10;71.60;;;;;;5013761;28;20069;-79
2024/01/16 08:24:30;;;;;;;0.17;0.17;;;2.10;71.60;;;;;;5017193;28;20501;-79
2024/01/16 08:26:59;;;;;;;0.20;0.20;;;2.10;72.40;;;;;;5006767;28;20062;-78
2024/01/16 08:29:24;;;;;;;0.10;0.10;;;2.10;72.70;;;;;;4999801;28;20065;-79
2024/01/16 08:31:53;;;;;;;0.20;0.20;;;2.10;73.70;;;;;;5014913;28;20046;-78
2024/01/16 08:34:19;;;;;;;0.20;0.20;;;2.10;73.50;;;;;;5006072;28;20464;-78
2024/01/16 08:36:46;;;;;;;0.10;0.10;;;2.10;72.60;;;;;;4999833;28;20113;-79
2024/01/16 08:39:11;;;;;;;0.20;0.20;;;2.20;73.00;;;;;;4998750;28;20041;-79
2024/01/16 08:41:37;;;;;;;0.10;0.10;;;2.20;73.00;;;;;;5015793;28;20085;-79
2024/01/16 08:44:03;;;;;;;0.20;0.20;;;2.20;73.10;;;;;;5007921;28;20034;-79
2024/01/16 08:46:29;;;;;;;0.10;0.10;;;2.20;73.00;;;;;;5015161;28;20418;-79
2024/01/16 08:48:55;;;;;;;0.10;0.10;;;2.20;72.30;;;;;;4999389;28;20038;-79
2024/01/16 08:51:20;;;;;;;0.10;0.10;;;2.30;72.50;;;;;;4998287;28;20379;-79
2024/01/16 08:53:46;;;;;;;0.10;0.10;;;2.30;73.40;;;;;;4999508;28;20033;-79
2024/01/16 08:56:12;;;;;;;0.20;0.20;;;2.30;73.10;;;;;;4999694;28;20447;-78
2024/01/16 08:58:38;;;;;;;0.10;0.10;;;2.40;71.20;;;;;;4999112;28;20030;-79
2024/01/16 09:01:05;;;;;;;0.20;0.20;;;2.40;71.40;;;;;;5010681;28;20058;-79
2024/01/16 09:03:34;;;;;;;0.10;0.10;;;2.40;71.20;;;;;;5004717;28;20032;-78
2024/01/16 09:06:00;;;;;;;0.20;0.20;;;2.40;71.20;;;;;;5013573;28;20026;-78
2024/01/16 09:08:26;;;;;;;0.20;0.20;;;2.50;71.00;;;;;;4999434;28;20441;-78
2024/01/16 09:10:53;;;;;;;0.20;0.20;;;2.50;71.10;;;;;;4999191;28;20077;-78
2024/01/16 09:13:20;;;;;;;0.20;0.20;;;2.60;71.40;;;;;;4999090;28;20038;-78
2024/01/16 09:15:46;;;;;;;0.20;0.20;;;2.70;71.30;;;;;;4998139;28;20947;-78
2024/01/16 09:18:12;;;;;;;0.20;0.20;;;2.70;71.20;;;;;;4999066;28;20018;-79
2024/01/16 09:20:38;;;;;;;0.20;0.20;;;2.70;71.00;;;;;;4998107;28;20057;-79
2024/01/16 09:23:04;;;;;;;0.20;0.20;;;2.70;71.10;;;;;;4999032;28;20022;-79
2024/01/16 09:25:29;;;;;;;0.20;0.20;;;2.80;70.80;;;;;;4999006;28;20117;-79
2024/01/16 09:27:55;;;;;;;0.20;0.20;;;2.80;70.10;;;;;;4997745;28;20112;-79
2024/01/16 09:30:22;;;;;;;0.20;0.20;;;2.90;70.20;;;;;;4998652;28;20030;-79
2024/01/16 09:32:48;;;;;;;0.20;0.20;;;2.90;70.10;;;;;;4999975;28;20025;-79
2024/01/16 09:35:14;;;;;;;0.20;0.20;;;3.10;69.80;;;;;;5008252;28;20097;-79
2024/01/16 09:37:40;;;;;;;0.38;0.38;;;3.10;69.70;;;;;;4997722;28;20050;-79
2024/01/16 09:40:07;;;;;;;5.03;4.63;;;3.20;69.10;;;;;;5002210;28;20040;-79
2024/01/16 09:42:33;;;;;;;0.50;0.50;;;3.50;68.90;;;;;;5016945;28;20034;-79
2024/01/16 09:45:02;;;;;;;2.85;2.65;;;3.80;67.60;;;;;;5012475;28;20030;-79
2024/01/16 09:47:33;;;;;;;0.50;0.50;;;4.10;67.00;;;;;;4998848;28;20464;-79
2024/01/16 09:50:01;;;;;;;0.30;0.30;;;4.30;65.70;;;;;;5004769;28;20415;-79
2024/01/16 09:52:27;;;;;;;0.20;0.20;;;4.20;64.60;;;;;;4997474;28;20033;-79
2024/01/16 09:54:52;;;;;;;0.10;0.10;;;4.20;64.10;;;;;;4997431;28;20027;-78
2024/01/16 09:57:22;;;;;;;0.10;0.10;;;4.10;64.30;;;;;;4998100;28;20026;-79
2024/01/16 09:59:48;;;;;;;0.13;0.13;;;4.00;63.50;;;;;;5001678;28;20028;-79
2024/01/16 10:02:14;;;;;;;0.10;0.10;;;4.00;63.00;;;;;;5018145;28;20026;-79
2024/01/16 10:04:43;;;;;;;0.17;0.17;;;3.90;63.60;;;;;;5015379;28;20037;-79
2024/01/16 10:07:11;;;;;;;0.10;0.10;;;3.90;63.60;;;;;;5018043;28;20030;-78
2024/01/16 10:09:38;;;;;;;0.10;0.10;;;3.80;63.80;;;;;;4999163;28;20052;-79
2024/01/16 10:12:05;;;;;;;0.10;0.10;;;3.80;64.20;;;;;;4997876;28;20027;-79
2024/01/16 10:14:33;;;;;;;0.20;0.20;;;3.80;64.80;;;;;;4998481;28;20034;-78
2024/01/16 10:17:02;;;;;;;0.13;0.13;;;3.70;63.70;;;;;;4998053;28;20038;-79
2024/01/16 10:19:29;;;;;;;0.10;0.10;;;3.70;63.50;;;;;;5011985;28;20066;-78
2024/01/16 10:22:04;;;;;;;0.20;0.20;;;3.60;63.80;;;;;;4998006;28;20022;-79
2024/01/16 10:24:31;;;;;;;0.10;0.10;;;3.60;64.20;;;;;;4997912;28;20018;-79
2024/01/16 10:27:02;;;;;;;0.10;0.10;;;3.50;64.50;;;;;;5002184;28;20022;-79
2024/01/16 10:29:28;;;;;;;0.20;0.20;;;3.50;64.70;;;;;;5016575;28;20030;-79
2024/01/16 10:31:53;;;;;;;0.10;0.10;;;3.50;64.80;;;;;;5016360;28;20096;-78
2024/01/16 10:34:22;;;;;;;0.20;0.20;;;3.50;65.20;;;;;;5010976;28;20026;-78
2024/01/16 10:36:52;;;;;;;0.10;0.10;;;3.70;65.30;;;;;;5012867;28;20050;-78
2024/01/16 10:39:18;;;;;;;0.20;0.20;;;3.70;65.60;;;;;;4997941;28;20030;-78
2024/01/16 10:41:57;;;;;;;0.20;0.20;;;3.60;65.10;;;;;;5014544;28;20032;-79
2024/01/16 10:44:23;;;;;;;0.10;0.10;;;3.60;65.30;;;;;;5017157;28;20033;-79
2024/01/16 10:46:49;;;;;;;0.20;0.20;;;3.70;65.60;;;;;;5003057;28;20038;-78
2024/01/16 10:49:15;;;;;;;0.20;0.20;;;3.70;66.00;;;;;;4997071;28;20027;-78
2024/01/16 10:51:44;;;;;;;0.20;0.20;;;3.80;66.40;;;;;;4996436;28;20490;-78
2024/01/16 10:54:14;;;;;;;0.10;0.10;;;3.90;66.50;;;;;;4997651;28;20014;-78
2024/01/16 10:56:48;;;;;;;0.20;0.20;;;4.00;66.10;;;;;;4997383;28;20049;-79
2024/01/16 10:59:24;;;;;;;0.20;0.20;;;4.20;66.00;;;;;;4997221;28;20521;-79
2024/01/16 11:01:54;;;;;;;0.20;0.20;;;4.30;65.80;;;;;;4996269;28;20030;-79
2024/01/16 11:04:21;;;;;;;0.10;0.10;;;4.30;65.40;;;;;;5006414;28;20474;-79
2024/01/16 11:06:48;;;;;;;0.20;0.20;;;4.30;65.10;;;;;;4995819;28;20402;-79
2024/01/16 11:09:16;;;;;;;0.20;0.20;;;4.40;65.20;;;;;;4997327;28;20105;-79
2024/01/16 11:11:46;;;;;;;0.20;0.20;;;4.50;65.40;;;;;;4997127;28;20032;-79
2024/01/16 11:14:15;;;;;;;0.10;0.10;;;4.50;64.90;;;;;;4996759;28;20156;-79
2024/01/16 11:16:42;;;;;;;0.10;0.10;;;4.40;64.60;;;;;;5003833;28;20018;-78
2024/01/16 11:19:11;;;;;;;0.10;0.10;;;4.50;64.80;;;;;;5016706;28;20144;-78
2024/01/16 11:21:37;;;;;;;0.10;0.10;;;4.50;65.30;;;;;;4998929;28;20037;-78
2024/01/16 11:24:03;;;;;;;0.10;0.10;;;4.40;65.10;;;;;;5012637;28;20478;-78
2024/01/16 11:26:33;;;;;;;0.10;0.10;;;4.30;65.50;;;;;;4997086;28;20035;-79
2024/01/16 11:29:00;;;;;;;0.20;0.20;;;4.30;65.00;;;;;;4998844;28;20030;-79
2024/01/16 11:31:35;;;;;;;0.20;0.20;;;4.30;65.30;;;;;;4996845;28;20058;-79
2024/01/16 11:34:02;;;;;;;0.20;0.20;;;4.40;65.10;;;;;;5006468;28;20105;-78
2024/01/16 11:36:47;;;;;;;0.15;0.15;;;4.40;65.00;;;;;;5009015;28;21233;-78
2024/01/16 11:39:20;;;;;;;0.10;0.10;;;4.50;64.80;;;;;;4996809;28;20398;-79
2024/01/16 11:41:56;;;;;;;0.20;0.20;;;4.60;64.70;;;;;;5013774;28;20084;-79
2024/01/16 11:44:50;;;;;;;0.20;0.20;;;4.80;65.00;;;;;;5014489;28;20076;-79
2024/01/16 11:47:21;;;;;;;0.10;0.10;;;4.90;63.20;;;;;;4997582;28;20022;-80
2024/01/16 11:49:50;;;;;;;0.20;0.20;;;4.80;63.10;;;;;;4999708;28;20069;-79
2024/01/16 11:52:39;;;;;;;0.20;0.20;;;4.80;62.10;;;;;;5000792;28;20489;-79
2024/01/16 11:55:25;;;;;;;0.20;0.20;;;4.80;62.50;;;;;;5000819;28;20030;-79
2024/01/16 11:58:21;;;;;;;0.20;0.20;;;4.90;61.50;;;;;;4992166;28;20038;-79
2024/01/16 12:00:51;;;;;;;0.20;0.20;;;5.00;61.20;;;;;;5003511;28;20045;-79
2024/01/16 12:03:18;;;;;;;0.10;0.10;;;5.10;60.90;;;;;;5004139;28;20117;-79
2024/01/16 12:05:44;;;;;;;0.10;0.10;;;5.10;59.80;;;;;;5020225;28;20159;-79
2024/01/16 12:08:10;;;;;;;0.10;0.10;;;5.10;59.30;;;;;;5001542;28;20092;-79
2024/01/16 12:10:47;;;;;;;0.20;0.20;;;5.20;60.00;;;;;;5006716;28;20014;-79
2024/01/16 12:13:13;;;;;;;0.10;0.10;;;5.20;59.20;;;;;;5014335;28;20027;-79
2024/01/16 12:15:39;;;;;;;0.20;0.20;;;5.20;58.60;;;;;;5002570;28;20029;-79
2024/01/16 12:18:04;;;;;;;0.20;0.20;;;5.20;58.00;;;;;;5019971;28;20032;-79
2024/01/16 12:20:32;;;;;;;0.15;0.15;;;5.20;58.30;;;;;;5007221;28;20077;-79
2024/01/16 12:22:59;;;;;;;0.10;0.10;;;5.40;58.10;;;;;;5000355;28;20517;-79
2024/01/16 12:25:30;;;;;;;0.13;0.13;;;5.30;56.80;;;;;;5000289;28;20026;-79
2024/01/16 12:28:00;;;;;;;0.10;0.10;;;5.30;57.60;;;;;;5000169;28;20034;-79
2024/01/16 12:30:36;;;;;;;0.17;0.17;;;5.30;57.00;;;;;;5016857;28;20034;-80
2024/01/16 12:33:09;;;;;;;0.20;0.20;;;5.40;56.50;;;;;;5019516;28;20598;-80
2024/01/16 12:35:39;;;;;;;0.20;0.20;;;5.40;57.50;;;;;;5004862;28;20034;-79
2024/01/16 12:38:06;;;;;;;0.10;0.10;;;5.40;57.50;;;;;;5016626;28;20025;-79
2024/01/16 12:40:36;;;;;;;0.17;0.17;;;5.40;56.90;;;;;;5017233;28;20068;-80
2024/01/16 12:43:03;;;;;;;0.10;0.10;;;5.40;57.20;;;;;;5019177;28;20121;-80
2024/01/16 12:45:29;;;;;;;0.20;0.20;;;5.50;56.70;;;;;;5018518;28;20108;-80
2024/01/16 12:47:58;;;;;;;0.20;0.20;;;5.40;56.80;;;;;;5016710;28;20057;-80
2024/01/16 12:50:26;;;;;;;0.10;0.10;;;5.30;56.40;;;;;;4999691;28;20543;-80
2024/01/16 12:53:02;;;;;;;0.20;0.20;;;5.20;57.20;;;;;;4999893;28;20022;-80
2024/01/16 12:55:28;;;;;;;0.20;0.20;;;5.20;57.90;;;;;;4999542;28;20117;-80
2024/01/16 12:58:20;;;;;;;0.15;0.15;;;5.20;57.10;;;;;;4999307;28;20062;-80
2024/01/16 13:00:50;;;;;;;0.10;0.10;;;5.20;57.10;;;;;;5010507;28;20037;-79
2024/01/16 13:03:20;;;;;;;0.10;0.10;;;5.10;56.70;;;;;;5014574;28;20119;-79
2024/01/16 13:05:59;;;;;;;0.10;0.10;;;5.10;57.00;;;;;;5018848;28;20085;-79
2024/01/16 13:08:26;;;;;;;0.10;0.10;;;5.20;58.40;;;;;;5005613;28;20038;-79
2024/01/16 13:11:09;;;;;;;0.10;0.10;;;5.20;57.30;;;;;;4998198;28;20034;-79
2024/01/16 13:13:36;;;;;;;0.20;0.20;;;5.20;57.20;;;;;;4998284;28;20034;-79
2024/01/16 13:16:05;;;;;;;0.10;0.10;;;5.20;57.60;;;;;;4998153;28;20110;-79
2024/01/16 13:18:31;;;;;;;0.20;0.20;;;5.20;57.50;;;;;;4999053;28;20022;-79
2024/01/16 13:20:59;;;;;;;0.10;0.10;;;5.20;57.80;;;;;;4999116;28;20027;-79
2024/01/16 13:23:25;;;;;;;0.20;0.20;;;5.20;57.60;;;;;;4999013;28;20478;-79
2024/01/16 13:25:52;;;;;;;0.20;0.20;;;5.20;57.60;;;;;;4999033;28;20529;-80
2024/01/16 13:28:19;;;;;;;0.20;0.20;;;5.20;58.80;;;;;;4998683;28;20050;-79
2024/01/16 13:30:47;;;;;;;0.20;0.20;;;5.20;58.60;;;;;;4998908;28;20050;-79
2024/01/16 13:33:13;;;;;;;0.20;0.20;;;5.20;58.30;;;;;;5000283;28;20030;-80
2024/01/16 13:35:40;;;;;;;0.10;0.10;;;5.20;57.60;;;;;;4998956;28;20018;-79
2024/01/16 13:38:07;;;;;;;0.13;0.13;;;5.20;57.50;;;;;;4998702;28;20018;-79
2024/01/16 13:40:34;;;;;;;0.15;0.15;;;5.10;57.70;;;;;;5006011;28;20113;-79
2024/01/16 13:43:00;;;;;;;0.10;0.10;;;5.10;57.40;;;;;;5009185;28;20041;-79
2024/01/16 13:45:26;;;;;;;0.13;0.13;;;5.10;57.60;;;;;;4997600;28;20030;-79
2024/01/16 13:47:52;;;;;;;0.10;0.10;;;5.00;57.60;;;;;;4998667;28;20058;-79
2024/01/16 13:50:18;;;;;;;0.10;0.10;;;5.00;57.50;;;;;;4998516;28;20121;-79
2024/01/16 13:52:43;;;;;;;0.10;0.10;;;5.00;58.00;;;;;;4997479;28;20030;-79
2024/01/16 13:55:10;;;;;;;0.20;0.20;;;5.10;57.60;;;;;;4998744;28;20073;-79
2024/01/16 13:57:36;;;;;;;0.10;0.10;;;5.10;58.10;;;;;;4997958;28;20041;-79
2024/01/16 14:00:04;;;;;;;0.10;0.10;;;5.10;57.60;;;;;;5002810;28;20018;-79
2024/01/16 14:02:30;;;;;;;0.10;0.10;;;5.10;58.10;;;;;;4998973;28;20036;-79
2024/01/16 14:04:55;;;;;;;0.10;0.10;;;5.20;58.10;;;;;;5015309;28;20033;-79
2024/01/16 14:07:22;;;;;;;0.10;0.10;;;5.20;57.70;;;;;;5017957;28;20080;-79
2024/01/16 14:09:47;;;;;;;0.10;0.10;;;5.20;57.90;;;;;;5011408;28;20057;-79
2024/01/16 14:12:13;;;;;;;0.20;0.20;;;5.20;58.00;;;;;;4998080;28;20470;-79
2024/01/16 14:14:41;;;;;;;0.10;0.10;;;5.20;58.30;;;;;;4999897;28;20038;-79
2024/01/16 14:17:07;;;;;;;0.10;0.10;;;5.10;57.80;;;;;;5017692;28;20064;-79
2024/01/16 14:19:36;;;;;;;0.10;0.10;;;5.10;58.00;;;;;;5017404;28;20029;-79
2024/01/16 14:22:02;;;;;;;0.10;0.10;;;5.20;58.70;;;;;;5015695;28;20026;-79
2024/01/16 14:24:28;;;;;;;0.10;0.10;;;5.20;58.50;;;;;;5016291;28;20527;-79
2024/01/16 14:26:56;;;;;;;0.10;0.10;;;5.20;58.50;;;;;;5005135;28;20097;-79
2024/01/16 14:29:22;;;;;;;0.10;0.10;;;5.20;58.50;;;;;;5017402;28;20030;-79
2024/01/16 14:31:48;;;;;;;0.10;0.10;;;5.20;59.30;;;;;;5017183;28;20052;-79
2024/01/16 14:34:14;;;;;;;0.10;0.10;;;5.10;57.40;;;;;;5011972;28;20022;-79
2024/01/16 14:36:41;;;;;;;0.20;0.20;;;5.10;57.70;;;;;;4997984;28;20410;-79
2024/01/16 14:39:13;;;;;;;0.20;0.20;;;5.00;58.00;;;;;;5008274;28;20076;-79
2024/01/16 14:41:39;;;;;;;0.20;0.20;;;5.00;58.40;;;;;;5017343;28;20057;-79
2024/01/16 14:44:05;;;;;;;0.10;0.10;;;4.90;58.20;;;;;;5015739;28;20068;-79
2024/01/16 14:46:33;;;;;;;0.10;0.10;;;4.80;58.30;;;;;;5014075;28;20026;-79
2024/01/16 14:48:58;;;;;;;0.10;0.10;;;4.80;59.20;;;;;;4996530;28;20029;-78
2024/01/16 14:51:25;;;;;;;0.20;0.20;;;4.80;58.60;;;;;;4996451;28;20018;-78
2024/01/16 14:53:50;;;;;;;0.10;0.10;;;4.70;58.80;;;;;;4997576;28;20018;-78
2024/01/16 14:56:18;;;;;;;0.10;0.10;;;4.80;59.10;;;;;;4996401;28;20444;-79
2024/01/16 14:58:44;;;;;;;0.20;0.20;;;4.80;59.20;;;;;;4995894;28;20026;-79
2024/01/16 15:01:10;;;;;;;0.10;0.10;;;4.80;59.20;;;;;;5015706;28;20033;-79
2024/01/16 15:03:36;;;;;;;0.10;0.10;;;4.70;59.20;;;;;;5016621;28;20485;-78
2024/01/16 15:06:02;;;;;;;0.10;0.10;;;4.70;59.20;;;;;;5013190;28;20096;-78
2024/01/16 15:08:30;;;;;;;0.10;0.10;;;4.70;59.50;;;;;;4995928;28;20026;-78
2024/01/16 15:10:56;;;;;;;0.10;0.10;;;4.60;59.40;;;;;;4996077;28;20031;-78
2024/01/16 15:13:23;;;;;;;0.10;0.10;;;4.60;59.80;;;;;;4997248;28;20022;-78
2024/01/16 15:15:51;;;;;;;0.10;0.10;;;4.70;60.30;;;;;;4996026;28;20037;-78
2024/01/16 15:18:17;;;;;;;0.10;0.10;;;4.60;60.80;;;;;;4997036;28;20491;-78
2024/01/16 15:20:42;;;;;;;0.10;0.10;;;4.60;60.70;;;;;;4997103;28;20402;-78
2024/01/16 15:23:08;;;;;;;0.20;0.20;;;4.60;61.30;;;;;;4996956;28;20049;-78
2024/01/16 15:25:34;;;;;;;0.13;0.13;;;4.60;61.50;;;;;;4996955;28;20026;-78
2024/01/16 15:27:59;;;;;;;0.15;0.15;;;4.60;61.30;;;;;;4995745;28;20077;-78
2024/01/16 15:30:31;;;;;;;0.10;0.10;;;4.50;61.30;;;;;;4995571;28;20045;-78
2024/01/16 15:32:57;;;;;;;0.20;0.20;;;4.50;61.00;;;;;;4997954;28;20028;-78
2024/01/16 15:35:22;;;;;;;0.10;0.10;;;4.50;61.00;;;;;;5016526;28;20064;-78
2024/01/16 15:37:49;;;;;;;0.10;0.10;;;4.50;60.70;;;;;;5016676;28;20079;-78
2024/01/16 15:40:15;;;;;;;0.10;0.10;;;4.40;60.20;;;;;;5016292;28;20029;-78
2024/01/16 15:42:41;;;;;;;0.20;0.20;;;4.40;60.40;;;;;;5011083;28;20101;-78
2024/01/16 15:45:09;;;;;;;0.10;0.10;;;4.30;60.40;;;;;;4996545;28;20043;-78
2024/01/16 15:47:35;;;;;;;0.10;0.10;;;4.30;60.50;;;;;;4995916;28;20109;-78
2024/01/16 15:50:01;;;;;;;0.10;0.10;;;4.30;60.60;;;;;;4996627;28;20486;-78
2024/01/16 15:52:27;;;;;;;0.20;0.20;;;4.20;60.70;;;;;;4996757;28;20031;-78
2024/01/16 15:54:53;;;;;;;0.10;0.10;;;4.20;60.90;;;;;;4996716;28;20025;-78
2024/01/16 15:57:19;;;;;;;0.10;0.10;;;4.20;61.20;;;;;;5011254;28;20057;-78
2024/01/16 15:59:44;;;;;;;0.20;0.20;;;4.20;61.20;;;;;;4999419;28;20022;-79
2024/01/16 16:02:10;;;;;;;0.10;0.10;;;4.20;61.70;;;;;;5016406;28;20559;-78
2024/01/16 16:04:36;;;;;;;0.10;0.10;;;4.20;61.90;;;;;;5011441;28;20085;-78
2024/01/16 16:07:03;;;;;;;0.10;0.10;;;4.20;62.20;;;;;;5003717;28;20529;-78
2024/01/16 16:09:28;;;;;;;0.10;0.10;;;4.10;62.30;;;;;;5016209;28;20030;-78
2024/01/16 16:11:55;;;;;;;0.10;0.10;;;4.10;62.60;;;;;;5014690;28;20033;-78
2024/01/16 16:14:21;;;;;;;0.10;0.10;;;4.10;62.70;;;;;;5015369;28;20105;-78
2024/01/16 16:16:50;;;;;;;0.20;0.20;;;4.00;62.70;;;;;;5004674;28;20288;-78
2024/01/16 16:19:16;;;;;;;0.10;0.10;;;4.00;62.70;;;;;;5014683;28;20037;-78
2024/01/16 16:21:42;;;;;;;0.10;0.10;;;4.00;62.70;;;;;;5010947;28;20031;-78
2024/01/16 16:24:07;;;;;;;0.20;0.20;;;3.90;63.00;;;;;;4996535;28;20102;-78
2024/01/16 16:26:36;;;;;;;0.20;0.20;;;3.90;63.40;;;;;;4996377;28;20026;-78
2024/01/16 16:29:06;;;;;;;0.15;0.15;;;3.90;63.20;;;;;;4996210;28;20041;-78
2024/01/16 16:31:34;;;;;;;0.10;0.10;;;3.80;63.60;;;;;;4996472;28;20070;-78
2024/01/16 16:34:05;;;;;;;0.13;0.13;;;3.80;63.70;;;;;;5016160;28;20386;-78
2024/01/16 16:36:31;;;;;;;0.10;0.10;;;3.80;63.90;;;;;;5016529;28;20095;-78
2024/01/16 16:38:58;;;;;;;0.20;0.20;;;3.80;63.80;;;;;;4999894;28;20037;-78
2024/01/16 16:41:24;;;;;;;0.10;0.10;;;3.90;63.50;;;;;;5000134;28;20030;-78
2024/01/16 16:43:50;;;;;;;0.20;0.20;;;3.80;63.70;;;;;;5016327;28;20068;-78
2024/01/16 16:46:17;;;;;;;0.15;0.15;;;3.80;63.90;;;;;;5017941;28;20026;-78
2024/01/16 16:48:51;;;;;;;0.20;0.20;;;3.70;64.10;;;;;;5014050;28;20031;-78
2024/01/16 16:51:22;;;;;;;0.10;0.10;;;3.70;64.50;;;;;;4999870;28;20102;-78
2024/01/16 16:53:49;;;;;;;0.10;0.10;;;3.70;64.40;;;;;;4999893;28;20079;-78
2024/01/16 16:56:17;;;;;;;0.10;0.10;;;3.70;64.20;;;;;;4999635;28;20018;-78
2024/01/16 16:58:46;;;;;;;0.10;0.10;;;3.70;64.50;;;;;;4999215;28;20030;-78
2024/01/16 17:01:15;;;;;;;0.20;0.20;;;3.70;64.70;;;;;;5014512;28;20156;-78
2024/01/16 17:03:43;;;;;;;0.20;0.20;;;3.70;64.80;;;;;;5018224;28;20102;-78
2024/01/16 17:06:09;;;;;;;0.20;0.20;;;3.70;65.00;;;;;;5017837;28;20045;-78
2024/01/16 17:08:35;;;;;;;0.10;0.10;;;3.70;65.20;;;;;;5003092;28;20068;-78
2024/01/16 17:11:03;;;;;;;0.20;0.20;;;3.70;65.30;;;;;;4999119;28;20585;-78
2024/01/16 17:13:30;;;;;;;0.15;0.15;;;3.70;65.30;;;;;;4999346;28;20495;-78
2024/01/16 17:15:56;;;;;;;0.20;0.20;;;3.70;65.50;;;;;;4999440;28;20033;-78
2024/01/16 17:18:22;;;;;;;0.20;0.20;;;3.80;65.50;;;;;;4998926;28;20026;-78
2024/01/16 17:20:48;;;;;;;0.20;0.20;;;3.70;65.30;;;;;;4998183;28;20122;-87
2024/01/16 17:23:13;;;;;;;0.10;0.10;;;3.60;65.10;;;;;;4998388;28;20062;-86
2024/01/16 17:25:39;;;;;;;0.20;0.20;;;3.70;65.60;;;;;;4999242;28;20029;-83
2024/01/16 17:28:05;;;;;;;0.20;0.20;;;3.70;65.30;;;;;;4998116;28;20058;-85
2024/01/16 17:30:32;;;;;;;0.10;0.10;;;3.60;65.40;;;;;;4997430;28;20533;-82
2024/01/16 17:32:58;;;;;;;0.20;0.20;;;3.60;65.50;;;;;;5013492;28;20026;-79
2024/01/16 17:35:33;;;;;;;;;;;;;;;;;;;;;
2024/01/16 17:37:59;;;;;;;0.10;0.10;;;3.60;65.90;;;;;;5014586;28;20089;-82
2024/01/16 17:40:25;;;;;;;0.20;0.20;;;3.60;65.80;;;;;;5010555;28;20469;-81
2024/01/16 17:42:50;;;;;;;0.20;0.20;;;3.50;65.80;;;;;;4985443;28;20505;-81
2024/01/16 17:45:16;;;;;;;0.20;0.20;;;3.60;66.10;;;;;;5015394;28;20436;-82
2024/01/16 17:47:42;;;;;;;0.10;0.10;;;3.60;66.10;;;;;;5018325;28;20034;-82
2024/01/16 17:50:09;;;;;;;0.10;0.10;;;3.60;66.20;;;;;;5014440;28;20117;-80
2024/01/16 17:52:35;;;;;;;0.10;0.10;;;3.60;66.30;;;;;;5015806;28;20018;-77
2024/01/16 17:55:02;;;;;;;0.10;0.10;;;3.60;66.30;;;;;;5015983;28;20022;-80
2024/01/16 17:57:28;;;;;;;0.13;0.13;;;3.60;66.30;;;;;;5017058;28;20033;-80
2024/01/16 17:59:54;;;;;;;0.10;0.10;;;3.60;66.50;;;;;;5012979;28;20026;-80
2024/01/16 18:02:20;;;;;;;0.20;0.20;;;3.60;66.60;;;;;;5012261;28;20040;-80
2024/01/16 18:04:46;;;;;;;0.20;0.20;;;3.60;67.10;;;;;;5014580;28;20030;-81
2024/01/16 18:07:13;;;;;;;0.13;0.13;;;3.50;67.40;;;;;;5002207;28;20440;-78
2024/01/16 18:09:39;;;;;;;0.20;0.20;;;3.50;67.60;;;;;;5013911;28;20025;-80
2024/01/16 18:12:05;;;;;;;0.20;0.20;;;3.50;67.70;;;;;;5017189;28;20026;-79
2024/01/16 18:14:30;;;;;;;0.20;0.20;;;3.50;67.90;;;;;;5006476;28;20034;-78
2024/01/16 18:16:56;;;;;;;0.20;0.20;;;3.50;67.90;;;;;;4996680;28;20117;-81
2024/01/16 18:19:25;;;;;;;0.10;0.10;;;3.50;68.00;;;;;;5012273;28;20120;-83
2024/01/16 18:21:52;;;;;;;0.10;0.10;;;3.50;68.00;;;;;;5017078;28;20026;-78
2024/01/16 18:24:17;;;;;;;0.10;0.10;;;3.40;68.30;;;;;;5012415;28;20037;-78
2024/01/16 18:26:44;;;;;;;0.15;0.15;;;3.40;68.70;;;;;;5008287;28;20030;-78
2024/01/16 18:29:13;;;;;;;0.20;0.20;;;3.40;69.00;;;;;;5008294;28;20057;-82